Time;durP1;ratioP1;P1;durP2;ratioP2;P2;SDS_P1;SDS_P2;PMS_P1;PMS_P2;Temp;Humidity;BMP_temperature;BMP_pressure;BME280_temperature;BME280_humidity;BME280_pressure;Samples;Min_cycle;Max_cycle;Signal;HPM_P1;HPM_P2
2022/12/12 00:01:47;;;;;;;43.20;19.92;;;-1.10;99.90;;;;;;6246021;22;20028;-90
2022/12/12 00:04:18;;;;;;;53.38;26.08;;;-1.00;99.90;;;;;;6246412;22;20031;-89
2022/12/12 00:06:44;;;;;;;48.38;24.10;;;-1.20;99.90;;;;;;6221540;22;20030;-88
2022/12/12 00:09:11;;;;;;;37.30;19.40;;;0.30;99.90;;;;;;6246599;22;20016;-88
2022/12/12 00:11:39;;;;;;;37.08;17.27;;;;;;;;;;6248195;22;20016;-87
2022/12/12 00:14:14;;;;;;;33.22;16.10;;;;;;;;;;6247649;22;20169;-89
2022/12/12 00:16:47;;;;;;;33.08;16.25;;;-1.20;99.90;;;;;;6248064;22;20081;-88
2022/12/12 00:19:23;;;;;;;33.08;15.95;;;-2.00;99.90;;;;;;6200326;22;20039;-89
2022/12/12 00:21:49;;;;;;;30.75;15.73;;;-0.80;99.90;;;;;;6247631;22;20022;-90
2022/12/12 00:24:25;;;;;;;33.38;15.63;;;1.10;99.90;;;;;;6274046;22;20020;-89
2022/12/12 00:26:54;;;;;;;38.72;16.48;;;-1.00;99.90;;;;;;6222315;22;20099;-88
2022/12/12 00:29:27;;;;;;;39.83;17.17;;;1.20;99.90;;;;;;6248542;22;20016;-91
2022/12/12 00:31:55;;;;;;;34.63;15.82;;;1.30;99.90;;;;;;6245278;22;20262;-89
2022/12/12 00:34:21;;;;;;;32.70;16.58;;;-1.10;99.90;;;;;;6247796;22;20058;-90
2022/12/12 00:36:50;;;;;;;34.63;16.45;;;-1.00;99.90;;;;;;6248825;22;20016;-89
2022/12/12 00:39:17;;;;;;;36.35;16.77;;;-2.20;99.90;;;;;;6248756;22;20016;-89
2022/12/12 00:41:47;;;;;;;30.17;15.52;;;-0.80;99.90;;;;;;6274306;22;20019;-90
2022/12/12 00:44:33;;;;;;;;;;;;;;;;;;;;;
2022/12/12 00:47:12;;;;;;;33.28;16.85;;;0.20;99.90;;;;;;6272368;22;20016;-90
2022/12/12 00:50:03;;;;;;;32.45;14.32;;;-1.10;99.90;;;;;;6251087;22;20030;-91
2022/12/12 00:52:31;;;;;;;37.38;16.52;;;1.40;99.90;;;;;;6246197;22;20085;-89
2022/12/12 00:55:03;;;;;;;29.33;15.15;;;-0.60;99.90;;;;;;6247185;22;20024;-90
2022/12/12 00:57:34;;;;;;;36.10;17.02;;;-0.60;99.90;;;;;;6248505;22;20033;-91
2022/12/12 01:00:11;;;;;;;31.70;15.43;;;-0.50;99.90;;;;;;6247458;22;20027;-90
2022/12/12 01:02:46;;;;;;;31.90;15.43;;;-0.40;99.90;;;;;;6248045;22;20099;-88
2022/12/12 01:05:13;;;;;;;35.20;16.13;;;0.30;99.90;;;;;;6246157;22;20118;-90
2022/12/12 01:07:51;;;;;;;35.25;15.68;;;1.50;99.90;;;;;;6248028;22;20086;-88
2022/12/12 01:10:22;;;;;;;33.45;15.15;;;-0.80;99.90;;;;;;6247342;22;20012;-92
2022/12/12 01:13:11;;;;;;;36.60;16.33;;;-0.70;99.90;;;;;;6223963;22;20015;-91
2022/12/12 01:15:40;;;;;;;33.97;16.50;;;-0.10;99.90;;;;;;6248529;22;20467;-91
2022/12/12 01:18:29;;;;;;;33.47;15.93;;;-0.70;99.90;;;;;;6249179;22;20015;-90
2022/12/12 01:21:00;;;;;;;33.22;16.73;;;1.00;99.90;;;;;;6226081;22;20074;-91
2022/12/12 01:23:28;;;;;;;32.22;15.98;;;0.60;99.90;;;;;;6274720;22;20020;-90
2022/12/12 01:26:10;;;;;;;33.63;16.60;;;-1.80;99.90;;;;;;6201265;22;20016;-90
2022/12/12 01:28:47;;;;;;;33.20;15.60;;;0.80;99.90;;;;;;6266141;22;20075;-89
2022/12/12 01:31:16;;;;;;;34.22;16.05;;;-0.60;99.90;;;;;;6267565;22;20050;-91
2022/12/12 01:33:44;;;;;;;36.95;17.73;;;-2.30;99.90;;;;;;6258569;22;20027;-89
2022/12/12 01:36:21;;;;;;;35.42;17.02;;;1.60;99.90;;;;;;6249426;22;20058;-90
2022/12/12 01:39:00;;;;;;;31.00;15.20;;;0.40;99.90;;;;;;6265621;22;20016;-91
2022/12/12 01:41:41;;;;;;;33.00;15.95;;;-1.80;99.90;;;;;;6267787;22;20023;-91
2022/12/12 01:44:41;;;;;;;36.00;16.02;;;1.60;99.90;;;;;;6234924;22;20024;-90
2022/12/12 01:47:10;;;;;;;34.53;15.10;;;-0.40;99.90;;;;;;6254406;22;20023;-89
2022/12/12 01:49:48;;;;;;;32.85;16.60;;;1.10;99.90;;;;;;6251507;22;20020;-91
2022/12/12 01:52:23;;;;;;;31.88;15.40;;;-0.50;99.90;;;;;;6248898;22;20102;-91
2022/12/12 01:55:16;;;;;;;34.08;16.83;;;-0.50;99.90;;;;;;6251189;22;20012;-92
2022/12/12 01:58:09;;;;;;;29.42;15.32;;;-2.20;99.90;;;;;;6283172;22;20297;-90
2022/12/12 02:00:41;;;;;;;35.80;17.17;;;-0.20;99.90;;;;;;6250954;22;20020;-90
2022/12/12 02:03:07;;;;;;;36.50;17.05;;;0.00;99.90;;;;;;6224675;22;20023;-91
2022/12/12 02:05:43;;;;;;;33.45;17.17;;;2.20;99.90;;;;;;6250707;22;20020;-89
2022/12/12 02:08:27;;;;;;;34.63;16.88;;;-0.40;99.90;;;;;;6274447;22;20015;-90
2022/12/12 02:10:56;;;;;;;34.95;17.02;;;1.40;99.90;;;;;;6250067;22;20058;-91
2022/12/12 02:13:30;;;;;;;32.90;15.75;;;-0.40;99.90;;;;;;6250461;22;20015;-90
2022/12/12 02:16:36;;;;;;;34.42;16.48;;;-0.10;99.90;;;;;;6250738;22;20102;-91
2022/12/12 02:19:33;;;;;;;33.45;15.85;;;-0.50;99.90;;;;;;6249771;22;20026;-90
2022/12/12 02:22:20;;;;;;;38.78;16.85;;;-0.40;99.90;;;;;;6249970;22;20019;-91
2022/12/12 02:24:52;;;;;;;32.25;15.30;;;-0.40;99.90;;;;;;6249563;22;20339;-90
2022/12/12 02:27:52;;;;;;;34.90;16.65;;;-0.10;99.90;;;;;;6250428;22;20026;-90
2022/12/12 02:30:34;;;;;;;;;;;-1.00;99.90;;;;;;6249819;22;20061;-92
2022/12/12 02:33:20;;;;;;;33.75;16.13;;;-0.20;99.90;;;;;;6249885;22;19919;-90
2022/12/12 02:36:31;;;;;;;35.67;16.25;;;-0.40;99.90;;;;;;6250235;22;20020;-91
2022/12/12 02:39:10;;;;;;;35.95;16.10;;;1.40;99.90;;;;;;6263452;22;20019;-89
2022/12/12 02:41:43;;;;;;;36.03;16.10;;;-0.30;99.90;;;;;;6249772;22;20019;-89
2022/12/12 02:44:37;;;;;;;34.97;18.13;;;-0.10;99.90;;;;;;6249160;22;20030;-90
2022/12/12 02:47:17;;;;;;;37.08;15.23;;;-0.20;99.90;;;;;;6248465;22;20024;-91
2022/12/12 02:50:11;;;;;;;36.00;16.83;;;-0.10;99.90;;;;;;6248008;22;20079;-90
2022/12/12 02:52:40;;;;;;;35.67;16.45;;;0.00;99.90;;;;;;6275081;22;20011;-89
2022/12/12 02:55:09;;;;;;;32.38;15.77;;;0.60;99.90;;;;;;6249195;22;20313;-91
2022/12/12 02:57:58;;;;;;;31.98;15.70;;;-0.10;99.90;;;;;;6247314;22;20011;-90
2022/12/12 03:00:44;;;;;;;31.38;15.35;;;1.30;99.90;;;;;;6228918;22;20020;-91
2022/12/12 03:10:09;;;;;;;31.75;15.55;;;0.00;99.90;;;;;;6274576;22;20432;-91
2022/12/12 03:13:02;;;;;;;;;;;;;;;;;;;;;
2022/12/12 03:15:52;;;;;;;32.25;13.73;;;1.30;99.90;;;;;;6275540;22;20047;-91
2022/12/12 03:18:58;;;;;;;;;;;;;;;;;;;;;
2022/12/12 03:21:56;;;;;;;28.35;13.68;;;-0.20;99.90;;;;;;6275143;22;20023;-91
2022/12/12 03:24:38;;;;;;;26.50;13.48;;;0.10;99.90;;;;;;6250820;22;20019;-90
2022/12/12 03:27:21;;;;;;;26.55;12.70;;;-0.10;99.90;;;;;;6251789;22;20070;-90
2022/12/12 03:30:06;;;;;;;28.23;13.65;;;1.60;99.90;;;;;;6251480;22;20020;-89
2022/12/12 03:32:53;;;;;;;26.20;13.20;;;0.00;99.90;;;;;;6258745;22;20047;-89
2022/12/12 03:35:36;;;;;;;26.05;12.50;;;-0.20;99.90;;;;;;6267774;22;20341;-92
2022/12/12 03:38:10;;;;;;;25.55;12.93;;;-1.60;99.90;;;;;;6262728;22;20015;-90
2022/12/12 03:41:01;;;;;;;24.15;12.40;;;1.40;99.90;;;;;;6252275;22;20075;-90
2022/12/12 03:43:37;;;;;;;23.33;12.40;;;0.00;99.90;;;;;;6245792;22;20019;-89
2022/12/12 03:46:39;;;;;;;25.80;13.63;;;-0.30;99.90;;;;;;6265298;22;20073;-91
2022/12/12 03:49:42;;;;;;;21.92;11.85;;;-0.40;99.90;;;;;;6253190;22;20016;-89
2022/12/12 03:52:18;;;;;;;23.63;11.77;;;-0.10;99.90;;;;;;6248227;22;20020;-88
2022/12/12 03:55:41;;;;;;;23.88;11.63;;;2.00;99.90;;;;;;6251007;22;20027;-91
2022/12/12 03:58:41;;;;;;;22.63;11.98;;;-0.40;99.90;;;;;;6255278;22;20068;-89
2022/12/12 04:01:14;;;;;;;23.48;10.75;;;-0.40;99.90;;;;;;6251001;22;20458;-89
2022/12/12 04:04:05;;;;;;;22.20;12.43;;;-0.90;99.90;;;;;;6251665;22;20022;-91
2022/12/12 04:07:08;;;;;;;;;;;;;;;;;;;;;
2022/12/12 04:16:10;;;;;;;20.55;10.93;;;-2.10;99.90;;;;;;6273971;22;20467;-90
2022/12/12 04:19:01;;;;;;;;;;;-0.40;99.90;;;;;;6273431;22;20017;-89
2022/12/12 04:25:03;;;;;;;22.17;11.68;;;0.80;99.90;;;;;;6274609;22;20031;-91
2022/12/12 04:27:46;;;;;;;20.98;11.13;;;-2.00;99.90;;;;;;6251200;22;20020;-90
2022/12/12 04:30:40;;;;;;;21.63;11.07;;;0.60;99.90;;;;;;6274835;22;20015;-90
2022/12/12 04:33:28;;;;;;;23.90;11.73;;;-1.00;99.90;;;;;;6275237;22;20522;-89
2022/12/12 04:36:02;;;;;;;22.52;11.75;;;-2.10;99.90;;;;;;6249094;22;20774;-90
2022/12/12 04:38:35;;;;;;;22.00;11.45;;;-1.80;99.90;;;;;;6248822;22;20447;-90
2022/12/12 04:41:30;;;;;;;23.67;11.85;;;-0.30;99.90;;;;;;6248996;22;20019;-89
2022/12/12 04:44:03;;;;;;;22.27;11.60;;;-0.70;99.90;;;;;;6248038;22;20050;-90
2022/12/12 04:46:48;;;;;;;22.33;11.38;;;1.10;99.90;;;;;;6274299;22;20458;-90
2022/12/12 04:49:20;;;;;;;21.92;12.05;;;1.30;99.90;;;;;;6249009;22;20027;-92
2022/12/12 04:52:01;;;;;;;23.20;11.93;;;0.20;99.90;;;;;;6248892;22;20011;-90
2022/12/12 04:55:23;;;;;;;26.25;11.63;;;-0.60;99.90;;;;;;6273897;22;20467;-89
2022/12/12 04:58:25;;;;;;;21.80;11.48;;;-1.80;99.90;;;;;;6257951;22;20045;-89
2022/12/12 05:01:14;;;;;;;21.65;11.93;;;-0.50;99.90;;;;;;6232697;22;20181;-91
2022/12/12 05:04:38;;;;;;;23.73;11.88;;;-0.80;99.90;;;;;;6272057;22;20072;-89
2022/12/12 05:07:22;;;;;;;24.00;12.45;;;-0.80;99.90;;;;;;6238618;22;20073;-88
2022/12/12 05:10:09;;;;;;;;;;;;;;;;;;;;;
2022/12/12 05:12:42;;;;;;;20.50;11.35;;;-0.90;99.90;;;;;;6273300;22;20133;-90
2022/12/12 05:15:11;;;;;;;24.13;12.55;;;-0.80;99.90;;;;;;6246280;22;20280;-90
2022/12/12 05:18:15;;;;;;;23.48;12.20;;;-0.80;99.90;;;;;;6248444;22;20026;-89
2022/12/12 05:20:45;;;;;;;22.10;11.75;;;-0.60;99.90;;;;;;6248891;22;20447;-90
2022/12/12 05:23:23;;;;;;;21.38;11.23;;;0.90;99.90;;;;;;6224374;22;20459;-89
2022/12/12 05:26:01;;;;;;;21.98;11.73;;;-0.50;99.90;;;;;;6225745;22;20012;-90
2022/12/12 05:29:14;;;;;;;21.67;11.50;;;1.00;99.90;;;;;;6250404;22;20020;-90
2022/12/12 05:34:50;;;;;;;21.98;11.75;;;-0.10;99.90;;;;;;6266170;22;20075;-90
2022/12/12 05:37:31;;;;;;;;;;;;;;;;;;;;;
2022/12/12 05:40:09;;;;;;;25.25;12.05;;;-0.50;99.90;;;;;;6279533;22;20059;-89
2022/12/12 05:42:46;;;;;;;21.88;11.48;;;-1.30;99.90;;;;;;6273566;22;20027;-89
2022/12/12 05:46:09;;;;;;;;;;;;;;;;;;;;;
2022/12/12 05:48:52;;;;;;;;;;;;;;;;;;;;;
2022/12/12 05:51:54;;;;;;;21.17;11.15;;;0.90;99.90;;;;;;6301677;22;20042;-88
2022/12/12 05:54:50;;;;;;;;;;;;;;;;;;;;;
2022/12/12 05:57:20;;;;;;;22.80;12.05;;;-1.50;99.90;;;;;;6269978;22;20016;-89
2022/12/12 06:00:03;;;;;;;;;;;;;;;;;;;;;
2022/12/12 06:02:32;;;;;;;22.88;11.35;;;0.60;99.90;;;;;;6284706;22;20022;-88
2022/12/12 06:05:05;;;;;;;21.70;11.13;;;-2.80;99.90;;;;;;6263819;22;20019;-87
2022/12/12 06:07:38;;;;;;;20.67;11.00;;;-1.50;99.90;;;;;;6230910;22;20007;-90
2022/12/12 06:10:17;;;;;;;21.48;11.10;;;-1.30;99.90;;;;;;6280583;22;20019;-89
2022/12/12 06:13:12;;;;;;;22.27;11.52;;;-1.20;99.90;;;;;;6259285;22;20104;-86
2022/12/12 06:15:44;;;;;;;24.65;13.00;;;-1.60;99.90;;;;;;6255617;22;20119;-89
2022/12/12 06:18:13;;;;;;;22.60;12.43;;;0.20;99.90;;;;;;6251818;22;20023;-87
2022/12/12 06:20:45;;;;;;;20.83;11.75;;;-1.50;99.90;;;;;;6252022;22;20502;-88
2022/12/12 06:23:14;;;;;;;26.08;12.23;;;-1.60;99.90;;;;;;6252844;22;20015;-90
2022/12/12 06:25:52;;;;;;;20.63;11.68;;;-1.70;99.90;;;;;;6255730;22;20015;-88
2022/12/12 06:28:29;;;;;;;25.83;12.52;;;-1.40;99.90;;;;;;6281329;22;20054;-89
2022/12/12 06:30:55;;;;;;;22.90;11.07;;;0.40;99.90;;;;;;6259026;22;20118;-89
2022/12/12 06:33:26;;;;;;;24.25;11.63;;;0.80;99.90;;;;;;6233640;22;20016;-87
2022/12/12 06:36:15;;;;;;;21.33;11.52;;;-1.50;99.90;;;;;;6256700;22;20027;-88
2022/12/12 06:38:46;;;;;;;21.98;11.15;;;-1.60;99.90;;;;;;6259028;22;20031;-88
2022/12/12 06:41:16;;;;;;;22.05;11.55;;;-0.90;99.90;;;;;;6277516;22;20015;-89
2022/12/12 06:43:55;;;;;;;22.63;11.80;;;-0.80;99.90;;;;;;6279183;22;20054;-91
2022/12/12 06:52:19;;;;;;;;;;;;;;;;;;;;;
2022/12/12 06:54:54;;;;;;;21.00;11.38;;;-1.20;99.90;;;;;;6280654;22;20015;-89
2022/12/12 06:57:32;;;;;;;25.00;11.52;;;-1.40;99.90;;;;;;6279627;22;20393;-91
2022/12/12 07:15:08;;;;;;;23.42;11.43;;;-0.80;99.90;;;;;;6157266;23;20044;-93
2022/12/12 07:17:50;;;;;;;22.55;11.82;;;-1.20;99.90;;;;;;6234981;22;20462;-90
2022/12/12 07:20:16;;;;;;;22.60;11.70;;;-0.70;99.90;;;;;;6277547;22;20094;-89
2022/12/12 07:22:42;;;;;;;24.23;12.02;;;-0.90;99.90;;;;;;6250620;22;20015;-89
2022/12/12 07:25:14;;;;;;;23.55;11.18;;;-3.00;99.90;;;;;;6229735;22;20019;-89
2022/12/12 07:28:30;;;;;;;;;;;;;;;;;;;;;
2022/12/12 07:32:13;;;;;;;;;;;;;;;;;;;;;
2022/12/12 07:41:52;;;;;;;23.40;11.88;;;-0.90;99.90;;;;;;6290376;22;19970;-89
2022/12/12 07:44:22;;;;;;;21.70;11.02;;;-1.10;99.90;;;;;;6216502;22;20024;-89
2022/12/12 07:47:26;;;;;;;25.08;12.60;;;-1.00;99.90;;;;;;6230735;22;20019;-93
2022/12/12 07:49:53;;;;;;;25.95;12.65;;;0.30;99.90;;;;;;6085704;23;20026;-85
2022/12/12 07:52:22;;;;;;;23.77;12.38;;;;;;;;;;6066513;23;20030;-88
2022/12/12 07:55:18;;;;;;;24.95;12.43;;;-1.10;99.90;;;;;;6140210;22;20024;-89
2022/12/12 07:58:09;;;;;;;25.35;13.10;;;0.30;99.90;;;;;;6213501;22;20019;-89
2022/12/12 08:00:43;;;;;;;23.67;12.60;;;-0.90;99.90;;;;;;6225185;22;20051;-89
2022/12/12 08:03:32;;;;;;;20.63;10.82;;;0.90;99.90;;;;;;6200427;22;20015;-90
2022/12/12 08:06:49;;;;;;;26.08;12.18;;;1.00;99.90;;;;;;6257309;22;20019;-89
2022/12/12 08:09:47;;;;;;;;;;;;;;;;;;;;;
2022/12/12 08:12:39;;;;;;;25.10;13.40;;;-0.70;99.90;;;;;;6275436;22;20046;-90
2022/12/12 08:15:15;;;;;;;25.67;12.93;;;-0.90;99.90;;;;;;6229569;22;20023;-88
2022/12/12 08:18:19;;;;;;;;;;;;;;;;;;;;;
2022/12/12 08:21:15;;;;;;;;;;;;;;;;;;;;;
2022/12/12 08:24:03;;;;;;;26.17;13.07;;;;;;;;;;6275662;22;20023;-91
2022/12/12 08:30:13;;;;;;;25.98;14.60;;;-1.00;99.90;;;;;;6246392;22;20054;-91
2022/12/12 08:33:09;;;;;;;29.88;15.80;;;-0.80;99.90;;;;;;6184463;23;20027;-91
2022/12/12 08:36:11;;;;;;;24.17;12.68;;;-0.70;99.90;;;;;;6222780;22;20029;-89
2022/12/12 08:42:18;;;;;;;;;;;;;;;;;;;;;
2022/12/12 08:45:28;;;;;;;27.05;14.85;;;-0.70;99.90;;;;;;6195689;22;20383;-90
2022/12/12 08:48:16;;;;;;;26.30;12.93;;;-1.90;99.90;;;;;;6222871;22;20016;-90
2022/12/12 08:50:51;;;;;;;27.75;14.55;;;-0.50;99.90;;;;;;6173775;22;20012;-91
2022/12/12 08:53:41;;;;;;;30.83;14.48;;;0.20;99.90;;;;;;6176991;22;20015;-91
2022/12/12 08:56:39;;;;;;;27.05;14.45;;;-1.40;99.90;;;;;;6157028;23;20052;-89
2022/12/12 08:59:21;;;;;;;26.17;14.15;;;-1.90;99.90;;;;;;6091198;23;20078;-89
2022/12/12 09:02:36;;;;;;;;;;;;;;;;;;;;;
2022/12/12 09:05:18;;;;;;;29.25;13.75;;;1.60;99.90;;;;;;6050722;23;20526;-89
2022/12/12 09:11:29;;;;;;;;;;;;;;;;;;;;;
2022/12/12 09:14:34;;;;;;;;;;;;;;;;;;;;;
2022/12/12 09:17:44;;;;;;;31.23;16.00;;;-0.40;99.90;;;;;;6098398;23;20014;-89
2022/12/12 09:31:34;;;;;;;30.73;15.32;;;-1.20;99.90;;;;;;6054652;23;20023;-92
2022/12/12 09:35:19;;;;;;;;;;;;;;;;;;;;;
2022/12/12 09:38:31;;;;;;;30.05;15.82;;;0.60;99.90;;;;;;6084230;23;20027;-90
2022/12/12 09:49:02;;;;;;;;;;;;;;;;;;;;;
2022/12/12 09:51:59;;;;;;;30.77;15.20;;;1.30;99.90;;;;;;6268911;22;20046;-89
2022/12/12 09:55:02;;;;;;;31.80;15.73;;;0.10;99.90;;;;;;6239135;22;20019;-91
2022/12/12 10:01:10;;;;;;;35.42;16.92;;;1.30;99.90;;;;;;6256282;22;20016;-89
2022/12/12 10:04:23;;;;;;;;;;;;;;;;;;;;;
2022/12/12 10:07:44;;;;;;;34.47;17.05;;;3.20;99.90;;;;;;6247095;22;20502;-90
2022/12/12 10:10:30;;;;;;;29.00;16.42;;;1.50;99.90;;;;;;6218604;22;20015;-91
2022/12/12 10:13:18;;;;;;;27.23;15.07;;;1.80;99.90;;;;;;6220488;22;20027;-90
2022/12/12 10:19:39;;;;;;;29.27;15.95;;;3.10;99.90;;;;;;6201982;22;20019;-90
2022/12/12 10:26:29;;;;;;;31.45;17.45;;;3.30;99.90;;;;;;6238751;22;20019;-92
2022/12/12 10:28:42;;;;;;;25.63;13.63;;;4.60;99.90;;;;;;6219196;22;20019;-88
2022/12/12 10:31:32;;;;;;;26.17;14.88;;;5.20;99.90;;;;;;6216215;22;20023;-88
2022/12/12 10:34:29;;;;;;;25.77;15.02;;;7.00;99.90;;;;;;6216091;22;20023;-87
2022/12/12 10:37:17;;;;;;;27.92;15.60;;;6.00;99.90;;;;;;6217986;22;20020;-85
2022/12/12 10:40:01;;;;;;;25.08;15.20;;;6.30;99.90;;;;;;6217178;22;20019;-85
2022/12/12 10:42:45;;;;;;;24.42;15.02;;;6.30;99.90;;;;;;6240279;22;20070;-86
2022/12/12 10:45:14;;;;;;;23.75;14.77;;;6.50;99.90;;;;;;6215934;22;20057;-85
2022/12/12 10:47:40;;;;;;;25.13;14.52;;;6.10;99.90;;;;;;6216701;22;20019;-86
2022/12/12 10:50:09;;;;;;;25.08;15.38;;;7.20;99.90;;;;;;6193109;22;20016;-85
2022/12/12 10:52:35;;;;;;;23.52;13.70;;;5.60;99.90;;;;;;6213630;22;20016;-86
2022/12/12 10:55:02;;;;;;;22.38;14.43;;;5.70;99.90;;;;;;6189571;22;20054;-87
2022/12/12 10:57:37;;;;;;;22.67;14.23;;;4.10;99.90;;;;;;6214860;22;20102;-87
2022/12/12 11:00:17;;;;;;;22.98;14.90;;;4.40;99.90;;;;;;6219423;22;20015;-86
2022/12/12 11:02:43;;;;;;;22.88;14.88;;;4.10;99.90;;;;;;6214086;22;20034;-87
2022/12/12 11:05:26;;;;;;;24.42;14.82;;;4.20;99.90;;;;;;6216703;22;20462;-86
2022/12/12 11:08:17;;;;;;;26.27;15.23;;;3.40;99.90;;;;;;6214983;22;20324;-86
2022/12/12 11:11:00;;;;;;;24.05;14.05;;;5.00;99.90;;;;;;6240778;22;20051;-87
2022/12/12 11:14:00;;;;;;;26.15;13.88;;;3.20;99.90;;;;;;6218882;22;20050;-91
2022/12/12 11:16:57;;;;;;;23.25;14.25;;;3.30;99.90;;;;;;6169205;22;20055;-95
2022/12/12 11:23:33;;;;;;;;;;;;;;;;;;;;;
2022/12/12 11:26:10;;;;;;;22.55;13.30;;;1.60;99.90;;;;;;6124790;23;20056;-95
2022/12/12 11:28:52;;;;;;;24.23;13.52;;;2.90;99.90;;;;;;6149554;23;20100;-93
2022/12/12 11:31:26;;;;;;;22.63;12.50;;;1.40;99.90;;;;;;6171583;22;20119;-93
2022/12/12 11:33:56;;;;;;;23.30;13.23;;;3.80;99.90;;;;;;6249232;22;20015;-91
2022/12/12 11:36:34;;;;;;;21.85;13.02;;;4.70;99.90;;;;;;6224082;22;20050;-94
2022/12/12 11:39:22;;;;;;;19.98;11.82;;;2.30;99.90;;;;;;6222084;22;20019;-90
2022/12/12 11:42:16;;;;;;;19.58;12.48;;;2.30;99.90;;;;;;6228925;22;20094;-91
2022/12/12 11:44:43;;;;;;;21.30;12.90;;;2.40;99.90;;;;;;6235509;22;20023;-90
2022/12/12 11:47:21;;;;;;;22.33;12.73;;;3.90;99.90;;;;;;6238523;22;20019;-89
2022/12/12 11:49:52;;;;;;;21.13;12.07;;;2.20;99.90;;;;;;6223348;22;20024;-88
2022/12/12 11:53:18;;;;;;;;;;;;;;;;;;;;;
2022/12/12 11:56:21;;;;;;;19.33;11.50;;;3.80;99.90;;;;;;6262672;22;20067;-94
2022/12/12 11:59:24;;;;;;;19.17;11.82;;;2.50;99.90;;;;;;6222488;22;20028;-92
2022/12/12 12:02:09;;;;;;;21.88;11.10;;;2.40;99.90;;;;;;6246678;22;20043;-89
2022/12/12 12:12:01;;;;;;;19.92;10.77;;;2.50;99.90;;;;;;6196469;23;20183;-93
2022/12/12 12:15:17;;;;;;;19.67;10.77;;;1.40;99.90;;;;;;6139572;23;20024;-95
2022/12/12 12:26:03;;;;;;;;;;;;;;;;;;;;;
2022/12/12 12:28:58;;;;;;;13.60;8.45;;;1.90;99.90;;;;;;5934655;23;20104;-93
2022/12/12 12:32:11;;;;;;;15.35;9.05;;;1.70;99.90;;;;;;6013704;23;20023;-93
2022/12/12 12:39:01;;;;;;;;;;;;;;;;;;;;;
2022/12/12 12:53:50;;;;;;;;;;;;;;;;;;;;;
2022/12/12 12:57:05;;;;;;;18.35;9.68;;;2.00;99.90;;;;;;6230829;22;20015;-94
2022/12/12 12:59:56;;;;;;;15.23;9.07;;;2.40;99.90;;;;;;6225151;22;20071;-93
2022/12/12 13:02:50;;;;;;;17.83;10.05;;;2.00;99.90;;;;;;6206528;22;20047;-95
2022/12/12 13:45:31;;;;;;;23.35;12.40;;;1.40;99.90;;;;;;6277115;22;20024;-89
2022/12/12 14:02:43;;;;;;;;;;;;;;;;;;;;;
2022/12/12 14:06:20;;;;;;;23.67;12.95;;;1.40;99.90;;;;;;6152030;22;20016;-92
2022/12/12 14:09:09;;;;;;;23.92;13.05;;;2.10;99.90;;;;;;6075258;23;20076;-92
2022/12/12 14:12:38;;;;;;;23.00;12.27;;;2.70;99.90;;;;;;6050790;23;20032;-92
2022/12/12 14:22:53;;;;;;;24.00;12.85;;;1.40;99.90;;;;;;6066145;23;20127;-92
2022/12/12 14:25:51;;;;;;;24.45;12.88;;;0.60;99.90;;;;;;6100548;23;20061;-91
2022/12/12 14:28:21;;;;;;;23.33;12.65;;;-0.10;99.90;;;;;;6065741;23;20048;-86
2022/12/12 14:31:21;;;;;;;;;;;;;;;;;;;;;
2022/12/12 14:34:41;;;;;;;23.52;14.40;;;0.90;99.90;;;;;;6248057;22;20043;-94
2022/12/12 14:50:50;;;;;;;;;;;;;;;;;;;;;
2022/12/12 15:05:36;;;;;;;25.23;14.02;;;-0.70;99.90;;;;;;6036297;23;20100;-94
2022/12/12 15:16:43;;;;;;;22.55;12.68;;;-0.50;99.90;;;;;;5922034;24;20125;-94
2022/12/12 15:19:46;;;;;;;25.77;13.18;;;0.40;99.90;;;;;;5908494;23;20013;-91
2022/12/12 15:23:07;;;;;;;23.92;12.27;;;1.10;99.90;;;;;;5999792;23;20009;-91
2022/12/12 15:26:12;;;;;;;26.40;13.90;;;1.60;99.90;;;;;;5934683;23;20054;-90
2022/12/12 15:28:59;;;;;;;21.90;11.88;;;2.30;99.90;;;;;;6014241;23;20061;-90
2022/12/12 15:44:23;;;;;;;26.92;13.23;;;-0.20;99.90;;;;;;5932669;24;20046;-91
2022/12/12 16:09:39;;;;;;;27.70;14.60;;;1.60;99.90;;;;;;6361659;22;20024;-91
2022/12/12 16:16:30;;;;;;;;;;;;;;;;;;;;;
2022/12/12 16:19:52;;;;;;;30.17;16.42;;;-2.00;99.90;;;;;;6367805;22;20010;-90
2022/12/12 16:23:25;;;;;;;;;;;;;;;;;;;;;
2022/12/12 16:26:18;;;;;;;29.92;13.63;;;-0.80;99.90;;;;;;6342967;22;20029;-88
2022/12/12 16:28:50;;;;;;;27.10;14.05;;;-0.70;99.90;;;;;;6271024;22;20072;-86
2022/12/12 16:32:04;;;;;;;25.33;15.02;;;1.30;99.90;;;;;;6290432;22;20052;-88
2022/12/12 16:34:32;;;;;;;30.10;15.70;;;-1.20;99.90;;;;;;6243700;22;20076;-91
2022/12/12 16:36:58;;;;;;;31.92;14.77;;;;;;;;;;6290036;22;20056;-89
2022/12/12 16:39:33;;;;;;;26.85;14.55;;;-1.50;99.90;;;;;;6286915;22;20537;-90
2022/12/12 16:42:28;;;;;;;31.75;16.75;;;0.50;99.90;;;;;;6289349;22;20716;-90
2022/12/12 16:56:53;;;;;;;;;;;;;;;;;;;;;
2022/12/12 16:59:57;;;;;;;32.53;16.90;;;-1.20;99.90;;;;;;6198565;22;20030;-90
2022/12/12 17:02:51;;;;;;;34.05;18.35;;;-1.30;99.90;;;;;;6227203;22;20015;-93
2022/12/12 17:06:28;;;;;;;;;;;;;;;;;;;;;
2022/12/12 17:14:05;;;;;;;;;;;;;;;;;;;;;
2022/12/12 17:22:33;;;;;;;29.75;15.52;;;-1.90;99.90;;;;;;6328390;22;20642;-90
2022/12/12 17:25:17;;;;;;;31.90;16.95;;;-1.30;99.90;;;;;;6317662;22;20017;-94
2022/12/12 17:28:31;;;;;;;;;;;;;;;;;;;;;
2022/12/12 17:34:47;;;;;;;35.67;20.08;;;-3.80;99.90;;;;;;6049716;23;20022;-91
2022/12/12 17:38:08;;;;;;;39.70;22.08;;;-1.70;99.90;;;;;;6269222;22;20468;-91
2022/12/12 17:40:56;;;;;;;;;;;;;;;;;;;;;
2022/12/12 17:44:04;;;;;;;35.88;19.45;;;-0.30;99.90;;;;;;6320479;22;20019;-92
2022/12/12 17:50:16;;;;;;;32.88;17.60;;;0.30;99.90;;;;;;6274666;22;20024;-92
2022/12/12 17:57:20;;;;;;;;;;;;;;;;;;;;;
2022/12/12 18:14:28;;;;;;;;;;;-2.30;99.90;;;;;;5661459;22;15132606;-91
2022/12/12 18:16:57;;;;;;;43.85;22.52;;;-3.00;99.90;;;;;;6254117;22;19993;-93
2022/12/12 18:20:20;;;;;;;;;;;;;;;;;;;;;
2022/12/12 18:23:04;;;;;;;;;;;;;;;;;;;;;
2022/12/12 18:25:46;;;;;;;;;;;;;;;;;;;;;
2022/12/12 18:28:38;;;;;;;37.80;18.40;;;-1.40;99.90;;;;;;6255560;22;20435;-89
2022/12/12 18:32:09;;;;;;;38.00;19.50;;;-2.20;99.90;;;;;;6214956;23;20020;-90
2022/12/12 18:34:43;;;;;;;31.23;17.30;;;-2.30;99.90;;;;;;6188690;23;20024;-89
2022/12/12 18:37:23;;;;;;;31.25;16.67;;;-2.30;99.90;;;;;;6167389;23;20127;-87
2022/12/12 18:40:03;;;;;;;32.30;17.92;;;-2.40;99.90;;;;;;6189187;23;20017;-89
2022/12/12 18:42:41;;;;;;;31.73;15.85;;;-0.10;99.90;;;;;;6172365;23;20020;-92
2022/12/12 18:45:23;;;;;;;;;;;;;;;;;;;;;
2022/12/12 18:48:06;;;;;;;28.33;16.40;;;-0.90;99.90;;;;;;6192457;23;20012;-90
2022/12/12 18:50:49;;;;;;;33.80;17.83;;;-2.40;99.90;;;;;;6163274;23;20409;-90
2022/12/12 18:53:44;;;;;;;32.60;16.88;;;-0.20;99.90;;;;;;6164785;23;20016;-90
2022/12/12 18:56:38;;;;;;;;;;;;;;;;;;;;;
2022/12/12 18:59:18;;;;;;;33.45;17.65;;;-2.50;99.90;;;;;;6189787;23;20017;-89
2022/12/12 19:01:52;;;;;;;31.75;16.60;;;-2.10;99.90;;;;;;6192865;23;20021;-90
2022/12/12 19:04:30;;;;;;;;;;;;;;;;;;;;;
2022/12/12 19:07:45;;;;;;;;;;;;;;;;;;;;;
2022/12/12 19:11:12;;;;;;;;;;;;;;;;;;;;;
2022/12/12 19:14:07;;;;;;;33.25;16.08;;;-2.50;99.90;;;;;;6149898;23;20014;-90
2022/12/12 19:17:27;;;;;;;31.35;16.75;;;-1.60;99.90;;;;;;6084911;23;20026;-93
2022/12/12 19:26:45;;;;;;;32.05;17.02;;;;;;;;;;6121751;23;20109;-87
2022/12/12 19:29:17;;;;;;;28.80;15.73;;;-2.60;99.90;;;;;;6240275;22;20020;-89
2022/12/12 19:36:03;;;;;;;;;;;;;;;;;;;;;
2022/12/12 19:38:32;;;;;;;29.90;15.50;;;-2.30;99.90;;;;;;6276061;22;20018;-91
2022/12/12 19:41:20;;;;;;;;;;;;;;;;;;;;;
2022/12/12 19:54:20;;;;;;;33.63;16.48;;;-2.90;99.90;;;;;;6274221;22;20504;-89
2022/12/12 19:56:46;;;;;;;30.80;16.45;;;-2.60;99.90;;;;;;6268621;22;20026;-91
2022/12/12 20:06:47;;;;;;;30.47;16.33;;;-2.80;99.90;;;;;;6249321;22;20024;-89
2022/12/12 20:09:24;;;;;;;28.92;14.60;;;-4.20;99.90;;;;;;6229560;22;20282;-89
2022/12/12 20:14:43;;;;;;;31.25;15.73;;;-3.00;99.90;;;;;;6201693;22;20086;-90
2022/12/12 20:17:23;;;;;;;29.00;15.60;;;-3.10;99.90;;;;;;6239239;23;20031;-85
2022/12/12 20:19:59;;;;;;;;;;;;;;;;;;;;;
2022/12/12 20:22:59;;;;;;;32.85;16.63;;;-3.10;99.90;;;;;;6240651;23;20059;-88
2022/12/12 20:25:26;;;;;;;30.58;16.05;;;-3.10;99.90;;;;;;6238839;23;20024;-90
2022/12/12 20:27:55;;;;;;;31.67;15.82;;;-3.30;99.90;;;;;;6214299;23;20024;-89
2022/12/12 20:30:26;;;;;;;30.02;16.83;;;-2.30;99.90;;;;;;6211812;23;20052;-88
2022/12/12 20:33:29;;;;;;;31.48;16.63;;;-3.20;99.90;;;;;;6215809;23;20012;-90
2022/12/12 20:40:42;;;;;;;30.58;16.58;;;-2.70;99.90;;;;;;6119531;23;20017;-89
2022/12/12 20:43:17;;;;;;;34.20;17.13;;;-3.20;99.90;;;;;;6093869;23;20081;-88
2022/12/12 20:46:18;;;;;;;;;;;;;;;;;;;;;
2022/12/12 20:49:14;;;;;;;36.30;16.95;;;-3.20;99.90;;;;;;6233961;23;20066;-90
2022/12/12 21:06:00;;;;;;;;;;;;;;;;;;;;;
2022/12/12 21:08:43;;;;;;;;;;;;;;;;;;;;;
2022/12/12 21:14:16;;;;;;;33.28;15.57;;;-3.80;99.90;;;;;;6110487;23;20075;-87
2022/12/12 21:16:43;;;;;;;30.75;16.65;;;-4.70;99.90;;;;;;6197209;23;20020;-89